Eduardo Fernandes

Recruteur - Sport Recife
16 Sept 2027
Jeudi
Processus

Personnalité

Adaptabilité (5) Ambition (7) Controverse (10) Loyauté (15) Pression (1) Professionnalisme (9) Sportivité (6) Tempérament (12)

Profil

Style d'entraînement Démocratique
Diplôme National A
Détermination 6
Gestion des joueurs 7
Motivation 9
Discipline 8
Satisfaction professionnelle
94%
Fatigue
0%
Rôle Recruteur
Salaire 30.3K p/s
Contrat 14.03.2028

Performance

Comportement Bon
Efficacité de l'entraînement
42%
Développement des joueurs
40%
Prévention des blessures
50%
Mise en place tactique
35%

Événements récents

A participé à une réunion de recrutement maintenant
A participé à une réunion de recrutement maintenant
A évalué un joueur 7j
A participé à une réunion de recrutement 7j
A participé à une réunion de recrutement 7j
A recommandé une cible de transfert 7j
A recommandé une cible de transfert 7j
A évalué un joueur 7j

Suivi en cours

93
Joueur Club Statut Capacité Confiance Observé Dernière observation Dernier vote
Bernardo Lima Porto Actif 96 / 113 40% 3 10.09.2027 -
Eduardo Felicíssimo Sporting CP Actif 123 / 134 40% 4 10.09.2027 -
Mauro Carrizo Atlético Tucumán Actif 97 / 105 40% 1 10.09.2027 -
Figueiredo Sampaio Correa Actif 88 / 101 40% 1 06.09.2027 -
Tyson Pearce St. Louis CITY SC Actif 96 / 103 40% 1 06.09.2027 -
Ignacio Fernández Boston River Actif 88 / 98 40% 1 06.09.2027 -
Lucas Wasilewsky Paysandu Rapport prêt 111 / 102 72% 1 12.07.2027 -
Caleb Yirenkyi Coventry City Actif 145 / 147 40% 2 21.06.2027 -
Loum Tchaouna Bolton Wanderers Rapport prêt 134 / 138 67% 1 21.06.2027 -
Johan Manzambi Newcastle United Actif 138 / 141 40% 1 21.06.2027 -
Jofre Torrents Ajax Actif 122 / 132 40% 7 14.06.2027 -
João Capucho Benfica Actif 102 / 98 40% 3 14.06.2027 -
Daniel Kelly Oxford United Actif 113 / 126 40% 1 14.06.2027 -
Zane Albarus Cambridge United Actif 85 / 107 40% 2 01.06.2027 -
Yussif Saidu Zaragoza Actif 113 / 127 40% 3 01.06.2027 -
Konstantin Tyukavin Inter Négociation 132 / 133 66% 1 01.06.2027 -
Bitello SC Freiburg Actif 135 / 135 68% 1 01.06.2027 Approuver
Facundo Torres LOSC Lille Actif 134 / 134 67% 1 01.06.2027 Approuver
Yuri Alberto Köln Négociation 140 / 141 67% 1 01.06.2027 -
Franculino Crystal Palace Négociation 136 / 140 67% 1 01.06.2027 -
Leandro Martins Benfica Actif 105 / 105 40% 1 30.05.2027 -
Dylan Lawlor Cardiff City Actif 106 / 114 40% 7 29.05.2027 -
Riley Owen Trento Actif 92 / 111 40% 2 29.05.2027 -
Ernie Weaver AFC Wimbledon Actif 110 / 112 40% 4 27.05.2027 -
Gonçalo Oliveira Benfica Actif 101 / 124 40% 5 26.05.2027 -
Matías Gómez Granada Actif 119 / 124 40% 2 26.05.2027 -
Simone Kosijer Triestina Actif 105 / 107 40% 1 25.05.2027 -
Davide Bartesaghi AC Milan Actif 125 / 143 40% 1 24.05.2027 -
Zaïd BafdilI Sporting CP Actif 99 / 109 40% 2 20.05.2027 -
Ibrahim Maza Bayer Leverkusen Actif 148 / 152 40% 1 16.05.2027 -
Darryl Bakola Padova Actif 106 / 118 40% 1 16.05.2027 -
Tiago Freitas Benfica Actif 116 / 116 40% 2 15.05.2027 -
Percy Jali Free State Stars Actif 98 / 100 40% 1 12.05.2027 -
Kazunari Kita Real Sociedad Actif 101 / 111 40% 3 10.05.2027 -
Josh King Chelsea Actif 144 / 141 40% 1 09.05.2027 -
Jan Bürger Gillingham Actif 120 / 127 40% 4 05.05.2027 -
Daniel Vernattus Metalist Actif 95 / 89 40% 2 01.05.2027 -
Oumar Solet Udinese Actif 159 / 144 40% 1 01.05.2027 -
Mats Wieffer Brighton Actif 137 / 147 40% 1 01.05.2027 -
Tariq Lamptey Queens Park Rangers Actif 123 / 137 40% 1 01.05.2027 -
Ryan Sessegnon Fulham Actif 137 / 141 40% 1 29.04.2027 -
Nicolò Rovella Lazio Actif 153 / 149 40% 1 29.04.2027 -
André Wolverhampton Actif 139 / 147 40% 2 28.04.2027 -
Adam Wharton Crystal Palace Actif 150 / 158 40% 2 28.04.2027 -
Tiago Djaló Besiktas Actif 146 / 130 40% 1 28.04.2027 -
Alessandro Buongiorno Sassuolo Actif 151 / 152 40% 2 26.04.2027 -
Nathan Collins Brentford Actif 139 / 150 40% 2 26.04.2027 -
James Garner Everton Actif 154 / 155 40% 1 26.04.2027 -
Soungoutou Magassa West Ham United Actif 136 / 134 40% 3 25.04.2027 -
Ousmane Diomande Nottingham Forest Actif 150 / 159 40% 1 25.04.2027 -
Milan van Ewijk Mansfield Town Actif 143 / 123 40% 2 22.04.2027 -
Óscar Mingueza Crystal Palace Actif 156 / 145 40% 2 22.04.2027 -
Martim Cunha Porto Actif 110 / 112 40% 1 21.04.2027 -
Lewis Ferguson Bologna Actif 144 / 134 40% 3 20.04.2027 -
Jake O'Brien Everton Actif 157 / 155 40% 1 20.04.2027 -
Florentino Luís Ipswich Town Actif 147 / 145 40% 3 19.04.2027 -
Edoardo Bove Watford Actif 129 / 133 40% 1 19.04.2027 -
José Pachuca Puebla Actif 102 / 111 40% 2 18.04.2027 -
Vasco Santos Oliveirense Actif 87 / 91 40% 1 18.04.2027 -
Kevin Vazquez Cruz Azul Actif 141 / 138 40% 2 17.04.2027 -
Bright Arrey-Mbi Braga Actif 135 / 139 40% 4 17.04.2027 -
Adrien Truffert Bournemouth Actif 146 / 150 40% 1 17.04.2027 -
Francisco Moura Lusitânia Lourosa Actif 143 / 132 40% 2 15.04.2027 -
Ethan Galbraith Swansea City Actif 125 / 128 40% 4 14.04.2027 -
Víctor Gómez Braga Actif 150 / 140 40% 1 13.04.2027 -
Harry Clarke Preston Actif 120 / 136 40% 3 12.04.2027 -
Christos Mouzakitis Hull City Actif 129 / 145 40% 1 12.04.2027 -
Habib Diarra Sunderland Actif 152 / 140 40% 1 12.04.2027 -
Jesús Orozco Chiquete Cruz Azul Actif 126 / 129 40% 1 10.04.2027 -
Sikou Niakaté Braga Actif 149 / 140 40% 4 09.04.2027 -
Callum Doyle Wrexham Actif 122 / 131 40% 1 09.04.2027 -
David Ozoh Derby County Actif 118 / 126 40% 1 09.04.2027 -
Ilay Camara Anderlecht Actif 123 / 133 40% 1 07.04.2027 -
Josh Doig Sassuolo Actif 132 / 138 40% 1 05.04.2027 -
Rodrigo Pinheiro Famalicao Actif 122 / 137 40% 1 04.04.2027 -
João Simões Sporting CP Actif 135 / 146 40% 1 04.04.2027 -
Ronnie Edwards Queens Park Rangers Actif 126 / 137 40% 1 02.04.2027 -
João Teixeira Porto Actif 113 / 116 40% 2 01.04.2027 -
Joel McGregor Swindon Town Actif 87 / 101 40% 2 01.04.2027 -
Jacques Ekomié Wrexham Actif 138 / 131 40% 2 01.04.2027 -
Khalis Merah Toulouse FC Actif 114 / 137 40% 1 01.04.2027 -
Leif Davis Ipswich Town Actif 130 / 136 40% 1 01.04.2027 -
Sidny Lopes Cabral Trabzonspor Actif 141 / 124 40% 1 31.03.2027 -
Nicolás Fernández Mercau Shakhtar Actif 145 / 128 40% 1 29.03.2027 Plus d'infos
Jordan Holsgrove Estoril Praia Actif 132 / 129 40% 1 29.03.2027 -
Max Bird Birmingham Actif 122 / 133 40% 1 25.03.2027 -
Imrân Louza Watford Actif 143 / 133 40% 1 24.03.2027 -
James Dornelly Peterborough United Actif 94 / 99 40% 1 24.03.2027 -
Noah Sadiki Sunderland Actif 133 / 149 40% 1 22.03.2027 -
Shea Charles Southampton Actif 140 / 132 40% 1 20.03.2027 -
Matvey Kislyak CSKA Moscow Actif 139 / 144 40% 1 20.03.2027 -
Rayhan Momade Sporting CP Actif 91 / 95 40% 1 20.03.2027 -
Oliver Skipp Leicester City Actif 138 / 140 40% 1 17.03.2027 -